createdAt,value
2023-10-01T00:01:42.070Z,12.44
2023-10-01T00:04:12.288Z,13.93
2023-10-01T00:06:41.455Z,15.06
2023-10-01T00:09:10.486Z,14.47
2023-10-01T00:11:39.559Z,13.58
2023-10-01T00:14:22.153Z,12.70
2023-10-01T00:16:54.295Z,12.17
2023-10-01T00:19:22.537Z,13.13
2023-10-01T00:21:50.465Z,14.39
2023-10-01T00:24:18.486Z,14.46
2023-10-01T00:26:47.697Z,13.55
2023-10-01T00:29:15.552Z,12.77
2023-10-01T00:31:43.470Z,12.20
2023-10-01T00:34:11.752Z,12.19
2023-10-01T00:36:39.847Z,13.60
2023-10-01T00:39:08.099Z,14.92
2023-10-01T00:41:35.888Z,15.06
2023-10-01T00:44:04.544Z,14.10
2023-10-01T00:46:33.746Z,13.12
2023-10-01T00:49:03.736Z,12.42
2023-10-01T00:51:33.505Z,12.28
2023-10-01T00:54:04.248Z,13.57
2023-10-01T00:56:32.788Z,14.53
2023-10-01T00:59:01.700Z,13.83
2023-10-01T01:01:29.887Z,12.94
2023-10-01T01:03:59.157Z,12.27
2023-10-01T01:06:37.799Z,12.20
2023-10-01T01:09:12.517Z,13.72
2023-10-01T01:11:40.537Z,14.58
2023-10-01T01:14:09.043Z,13.94
2023-10-01T01:16:37.084Z,13.09
2023-10-01T01:19:05.669Z,12.44
2023-10-01T01:21:34.673Z,11.96
2023-10-01T01:24:05.369Z,11.64
2023-10-01T01:26:33.657Z,12.33
2023-10-01T01:29:17.775Z,14.01
2023-10-01T01:31:47.473Z,14.88
2023-10-01T01:34:16.016Z,14.19
2023-10-01T01:36:44.804Z,13.27
2023-10-01T01:39:36.756Z,12.56
2023-10-01T01:42:07.075Z,11.89
2023-10-01T01:44:35.754Z,11.87
2023-10-01T01:47:08.030Z,13.26
2023-10-01T01:49:35.908Z,14.63
2023-10-01T01:52:06.881Z,15.07
2023-10-01T01:54:41.432Z,13.82
2023-10-01T01:57:15.799Z,12.67
2023-10-01T01:59:45.081Z,11.91
2023-10-01T02:02:13.568Z,12.34
2023-10-01T02:05:02.003Z,13.62
2023-10-01T02:07:32.594Z,13.75
2023-10-01T02:10:00.501Z,12.92
2023-10-01T02:12:31.376Z,12.06
2023-10-01T02:15:04.223Z,11.79
2023-10-01T02:17:32.692Z,12.67
2023-10-01T02:20:02.280Z,13.21
2023-10-01T02:22:33.253Z,12.63
2023-10-01T02:25:03.880Z,11.83
2023-10-01T02:27:43.142Z,12.56
2023-10-01T02:30:16.469Z,13.64
2023-10-01T02:32:51.343Z,13.86
2023-10-01T02:35:37.819Z,12.79
2023-10-01T02:38:30.471Z,11.79
2023-10-01T02:40:59.946Z,11.74
2023-10-01T02:43:37.304Z,13.07
2023-10-01T02:46:14.038Z,13.54
2023-10-01T02:48:46.569Z,12.66
2023-10-01T02:51:17.636Z,11.80
2023-10-01T02:54:07.340Z,11.19
2023-10-01T02:56:39.216Z,10.69
2023-10-01T02:59:16.357Z,11.23
2023-10-01T03:01:47.571Z,13.04
2023-10-01T03:04:18.336Z,14.43
2023-10-01T03:06:57.177Z,14.45
2023-10-01T03:09:36.098Z,13.28
2023-10-01T03:12:25.342Z,12.29
2023-10-01T03:15:18.339Z,11.56
2023-10-01T03:18:06.690Z,10.99
2023-10-01T03:20:39.134Z,10.51
2023-10-01T03:23:26.673Z,10.60
2023-10-01T03:26:00.905Z,12.70
2023-10-01T03:28:55.862Z,14.20
2023-10-01T03:31:25.899Z,13.83
2023-10-01T03:33:57.862Z,12.72
2023-10-01T03:36:28.663Z,11.80
2023-10-01T03:39:16.011Z,11.14
2023-10-01T03:42:03.829Z,10.59
2023-10-01T03:44:50.441Z,10.85
2023-10-01T03:47:20.673Z,12.73
2023-10-01T03:49:54.560Z,13.98
2023-10-01T03:52:22.950Z,14.45
2023-10-01T03:54:53.977Z,13.43
2023-10-01T03:57:24.344Z,12.30
2023-10-01T03:59:54.191Z,11.44
2023-10-01T04:02:29.332Z,10.81
2023-10-01T04:04:58.816Z,10.31
2023-10-01T04:07:45.126Z,10.63
2023-10-01T04:10:33.457Z,12.04
2023-10-01T04:13:13.894Z,13.22
2023-10-01T04:15:48.023Z,13.19
2023-10-01T04:18:17.249Z,11.80
2023-10-01T04:20:58.267Z,10.90
2023-10-01T04:23:37.616Z,11.51
2023-10-01T04:26:09.333Z,12.58
2023-10-01T04:28:45.828Z,12.39
2023-10-01T04:31:23.416Z,11.44
2023-10-01T04:33:52.018Z,10.90
2023-10-01T04:36:21.985Z,11.92
2023-10-01T04:38:53.507Z,12.89
2023-10-01T04:41:23.680Z,12.67
2023-10-01T04:44:01.383Z,11.69
2023-10-01T04:46:31.785Z,10.71
2023-10-01T04:49:15.624Z,10.53
2023-10-01T04:51:49.876Z,11.95
2023-10-01T04:54:22.816Z,12.90
2023-10-01T04:56:51.610Z,13.17
2023-10-01T04:59:22.776Z,11.99
2023-10-01T05:01:58.326Z,10.90
2023-10-01T05:04:28.573Z,11.65
2023-10-01T05:07:08.254Z,12.64
2023-10-01T05:09:37.317Z,12.93
2023-10-01T05:12:07.572Z,11.84
2023-10-01T05:14:53.606Z,10.84
2023-10-01T05:17:21.576Z,11.35
2023-10-01T05:19:51.826Z,12.40
2023-10-01T05:22:19.765Z,12.70
2023-10-01T05:24:50.577Z,11.70
2023-10-01T05:27:23.720Z,10.70
2023-10-01T05:29:51.546Z,10.44
2023-10-01T05:32:19.968Z,11.65
2023-10-01T05:34:48.661Z,12.46
2023-10-01T05:37:26.460Z,12.30
2023-10-01T05:40:12.403Z,11.02
2023-10-01T05:42:45.329Z,10.73
2023-10-01T05:45:20.242Z,11.74
2023-10-01T05:47:56.268Z,12.50
2023-10-01T05:50:30.408Z,12.87
2023-10-01T05:52:58.880Z,11.81
2023-10-01T05:55:26.931Z,10.73
2023-10-01T05:57:56.317Z,11.10
2023-10-01T06:00:29.416Z,11.82
2023-10-01T06:03:04.242Z,11.77
2023-10-01T06:05:45.400Z,12.18
2023-10-01T06:08:16.826Z,12.38
2023-10-01T06:11:06.766Z,11.53
2023-10-01T06:13:41.656Z,10.52
2023-10-01T06:16:19.389Z,10.12
2023-10-01T06:18:51.726Z,11.33
2023-10-01T06:21:26.473Z,12.54
2023-10-01T06:24:00.136Z,12.86
2023-10-01T06:26:44.773Z,11.89
2023-10-01T06:29:15.363Z,10.85
2023-10-01T06:31:54.066Z,10.18
2023-10-01T06:34:26.619Z,10.14
2023-10-01T06:37:01.011Z,11.71
2023-10-01T06:39:34.030Z,13.12
2023-10-01T06:42:21.105Z,13.50
2023-10-01T06:44:56.932Z,12.35
2023-10-01T06:47:29.429Z,11.26
2023-10-01T06:50:26.976Z,10.49
2023-10-01T06:52:58.969Z,10.97
2023-10-01T06:55:28.282Z,12.62
2023-10-01T06:57:57.478Z,13.84
2023-10-01T07:00:26.294Z,14.08
2023-10-01T07:02:55.162Z,13.07
2023-10-01T07:05:23.567Z,12.08
2023-10-01T07:07:51.707Z,11.33
2023-10-01T07:10:22.540Z,11.09
2023-10-01T07:13:00.400Z,12.26
2023-10-01T07:15:29.272Z,13.72
2023-10-01T07:17:59.486Z,14.32
2023-10-01T07:20:27.648Z,13.20
2023-10-01T07:22:58.019Z,12.12
2023-10-01T07:25:55.656Z,11.35
2023-10-01T07:28:24.049Z,10.97
2023-10-01T07:31:00.175Z,12.07
2023-10-01T07:33:32.647Z,13.61
2023-10-01T07:36:01.766Z,14.38
2023-10-01T07:38:34.080Z,13.61
2023-10-01T07:41:14.270Z,12.67
2023-10-01T07:43:44.463Z,11.98
2023-10-01T07:46:15.967Z,11.52
2023-10-01T07:48:48.718Z,11.68
2023-10-01T07:51:32.443Z,13.33
2023-10-01T07:54:03.840Z,14.63
2023-10-01T07:56:34.210Z,14.15
2023-10-01T07:59:25.589Z,13.13
2023-10-01T08:02:11.476Z,12.06
2023-10-01T08:04:48.575Z,12.07
2023-10-01T08:07:23.750Z,13.26
2023-10-01T08:09:59.083Z,13.66
2023-10-01T08:12:41.965Z,12.86
2023-10-01T08:15:29.132Z,12.11
2023-10-01T08:17:58.877Z,12.01
2023-10-01T08:20:33.516Z,13.07
2023-10-01T08:23:24.512Z,13.21
2023-10-01T08:25:58.124Z,12.36
2023-10-01T08:28:26.799Z,11.77
2023-10-01T08:31:25.212Z,12.06
2023-10-01T08:34:11.333Z,14.11
2023-10-01T08:36:45.228Z,14.97
2023-10-01T08:39:23.630Z,14.14
2023-10-01T08:41:53.001Z,13.32
2023-10-01T08:44:32.886Z,12.79
2023-10-01T08:47:23.612Z,12.43
2023-10-01T08:49:53.783Z,12.20
2023-10-01T08:52:27.605Z,12.10
2023-10-01T08:54:55.912Z,13.27
2023-10-01T08:57:46.865Z,14.97
2023-10-01T09:00:22.300Z,15.39
2023-10-01T09:03:12.711Z,14.63
2023-10-01T09:06:02.649Z,13.90
2023-10-01T09:08:47.062Z,13.36
2023-10-01T09:11:19.635Z,13.05
2023-10-01T09:14:00.061Z,12.88
2023-10-01T09:16:44.438Z,12.74
2023-10-01T09:19:31.885Z,12.64
2023-10-01T09:22:23.902Z,13.03
2023-10-01T09:25:08.749Z,14.54
2023-10-01T09:27:59.672Z,14.33
2023-10-01T09:30:33.468Z,13.70
2023-10-01T09:33:16.472Z,13.34
2023-10-01T09:35:52.203Z,13.11
2023-10-01T09:38:22.907Z,12.98
2023-10-01T09:41:05.292Z,12.97
2023-10-01T09:43:37.262Z,13.00
2023-10-01T09:46:07.973Z,13.05
2023-10-01T09:48:50.566Z,13.09
2023-10-01T09:51:23.729Z,13.15
2023-10-01T09:54:03.810Z,13.21
2023-10-01T09:56:46.780Z,13.26
2023-10-01T09:59:16.618Z,13.32
2023-10-01T10:01:46.677Z,13.39
2023-10-01T10:04:22.135Z,13.47
2023-10-01T10:07:01.525Z,13.55
2023-10-01T10:09:32.804Z,13.61
2023-10-01T10:12:03.688Z,13.67
2023-10-01T10:14:34.616Z,13.74
2023-10-01T10:17:17.623Z,13.81
2023-10-01T10:20:42.968Z,13.91
2023-10-01T10:23:16.533Z,14.06
2023-10-01T10:25:46.449Z,14.13
2023-10-01T10:28:27.152Z,14.17
2023-10-01T10:31:32.214Z,14.23
2023-10-01T10:34:27.070Z,14.32
2023-10-01T10:36:56.786Z,14.38
2023-10-01T10:39:48.550Z,14.45
2023-10-01T10:42:29.774Z,14.52
2023-10-01T10:45:25.253Z,14.55
2023-10-01T10:48:08.704Z,14.56
2023-10-01T10:50:50.564Z,14.58
2023-10-01T10:53:24.431Z,14.64
2023-10-01T10:56:08.991Z,14.75
2023-10-01T10:58:48.041Z,14.83
2023-10-01T11:01:24.279Z,14.90
2023-10-01T11:03:58.334Z,14.99
2023-10-01T11:06:41.905Z,15.06
2023-10-01T11:09:32.202Z,15.10
2023-10-01T11:12:02.247Z,15.18
2023-10-01T11:14:31.056Z,15.22
2023-10-01T11:16:59.042Z,15.26
2023-10-01T11:19:29.529Z,15.31
2023-10-01T11:22:00.496Z,15.37
2023-10-01T11:24:41.010Z,15.38
2023-10-01T11:27:18.903Z,15.40
2023-10-01T11:30:15.273Z,15.41
2023-10-01T11:33:05.554Z,15.37
2023-10-01T11:36:10.224Z,15.34
2023-10-01T11:38:44.632Z,15.29
2023-10-01T11:41:13.726Z,15.25
2023-10-01T11:44:00.210Z,15.21
2023-10-01T11:46:37.017Z,15.20
2023-10-01T11:49:21.585Z,15.27
2023-10-01T11:51:55.830Z,15.40
2023-10-01T11:54:49.720Z,15.52
2023-10-01T11:57:24.134Z,15.56
2023-10-01T11:59:56.986Z,15.58
2023-10-01T12:02:34.829Z,15.69
2023-10-01T12:05:09.241Z,15.83
2023-10-01T12:07:41.888Z,16.02
2023-10-01T12:10:34.074Z,16.17
2023-10-01T12:13:03.920Z,16.31
2023-10-01T12:15:41.933Z,16.46
2023-10-01T12:18:16.413Z,16.58
2023-10-01T12:20:49.331Z,16.59
2023-10-01T12:23:20.859Z,16.53
2023-10-01T12:25:54.233Z,16.47
2023-10-01T12:28:27.254Z,16.44
2023-10-01T12:31:01.769Z,16.39
2023-10-01T12:33:44.237Z,16.35
2023-10-01T12:36:33.998Z,16.30
2023-10-01T12:39:11.175Z,16.25
2023-10-01T12:41:55.393Z,16.19
2023-10-01T12:44:27.126Z,16.13
2023-10-01T12:46:57.160Z,16.07
2023-10-01T12:49:25.070Z,16.03
2023-10-01T12:51:56.088Z,16.00
2023-10-01T12:54:30.020Z,15.98
2023-10-01T12:57:14.073Z,16.01
2023-10-01T12:59:45.494Z,16.02
2023-10-01T13:02:25.294Z,16.03
2023-10-01T13:05:21.607Z,16.09
2023-10-01T13:07:55.151Z,16.13
2023-10-01T13:10:39.285Z,16.15
2023-10-01T13:13:09.280Z,16.15
2023-10-01T13:15:44.780Z,16.14
2023-10-01T13:18:30.295Z,16.12
2023-10-01T13:21:00.700Z,16.11
2023-10-01T13:23:30.734Z,16.09
2023-10-01T13:26:11.238Z,16.11
2023-10-01T13:28:55.067Z,16.14
2023-10-01T13:31:46.450Z,16.15
2023-10-01T13:34:23.145Z,16.16
2023-10-01T13:37:00.574Z,16.14
2023-10-01T13:39:39.193Z,16.13
2023-10-01T13:42:28.740Z,16.12
2023-10-01T13:45:15.781Z,16.12
2023-10-01T13:48:03.467Z,16.10
2023-10-01T13:50:49.794Z,16.06
2023-10-01T13:53:36.431Z,16.04
2023-10-01T13:56:23.668Z,16.01
2023-10-01T13:59:13.589Z,16.01
2023-10-01T14:02:00.552Z,15.99
2023-10-01T14:04:48.503Z,15.98
2023-10-01T14:07:36.541Z,15.97
2023-10-01T14:10:06.198Z,15.95
2023-10-01T14:12:43.262Z,15.92
2023-10-01T14:15:23.569Z,15.88
2023-10-01T14:17:58.003Z,15.83
2023-10-01T14:20:45.408Z,15.76
2023-10-01T14:23:30.681Z,15.69
2023-10-01T14:26:12.895Z,15.61
2023-10-01T14:28:50.906Z,15.54
2023-10-01T14:31:40.742Z,15.51
2023-10-01T14:34:10.666Z,15.47
2023-10-01T14:36:42.653Z,15.42
2023-10-01T14:39:13.863Z,15.38
2023-10-01T14:41:44.528Z,15.36
2023-10-01T14:44:16.633Z,15.34
2023-10-01T14:46:53.073Z,15.32
2023-10-01T14:49:24.541Z,15.31
2023-10-01T14:51:58.542Z,15.30
2023-10-01T14:54:30.753Z,15.29
2023-10-01T14:57:03.816Z,15.26
2023-10-01T14:59:33.731Z,15.21
2023-10-01T15:02:04.324Z,15.14
2023-10-01T15:04:37.925Z,15.07
2023-10-01T15:07:10.533Z,15.01
2023-10-01T15:09:39.775Z,14.96
2023-10-01T15:12:17.378Z,14.91
2023-10-01T15:15:11.054Z,14.88
2023-10-01T15:17:46.685Z,14.85
2023-10-01T15:20:29.781Z,14.83
2023-10-01T15:22:58.963Z,14.81
2023-10-01T15:25:34.481Z,14.79
2023-10-01T15:28:11.427Z,14.78
2023-10-01T15:30:46.280Z,14.76
2023-10-01T15:33:22.101Z,14.74
2023-10-01T15:35:55.303Z,14.72
2023-10-01T15:38:31.601Z,14.71
2023-10-01T15:41:01.508Z,14.67
2023-10-01T15:43:29.335Z,14.66
2023-10-01T15:46:20.473Z,14.64
2023-10-01T15:48:52.617Z,14.61
2023-10-01T15:51:28.794Z,14.59
2023-10-01T15:53:58.050Z,14.57
2023-10-01T15:56:36.295Z,14.53
2023-10-01T15:59:12.295Z,14.54
2023-10-01T16:01:52.568Z,14.50
2023-10-01T16:04:25.883Z,14.49
2023-10-01T16:07:05.276Z,14.48
2023-10-01T16:09:42.337Z,14.44
2023-10-01T16:12:13.638Z,14.41
2023-10-01T16:14:58.968Z,14.36
2023-10-01T16:17:34.201Z,14.25
2023-10-01T16:20:11.455Z,14.22
2023-10-01T16:22:48.889Z,14.21
2023-10-01T16:25:20.940Z,14.16
2023-10-01T16:27:49.423Z,14.11
2023-10-01T16:30:18.831Z,14.10
2023-10-01T16:32:54.676Z,14.08
2023-10-01T16:35:28.831Z,14.06
2023-10-01T16:38:07.345Z,14.03
2023-10-01T16:40:37.399Z,14.01
2023-10-01T16:43:15.570Z,13.99
2023-10-01T16:45:46.150Z,13.97
2023-10-01T16:48:25.986Z,13.95
2023-10-01T16:51:00.716Z,13.94
2023-10-01T16:53:35.094Z,13.93
2023-10-01T16:56:14.012Z,13.90
2023-10-01T16:58:49.586Z,13.88
2023-10-01T17:01:27.458Z,13.87
2023-10-01T17:04:11.307Z,13.84
2023-10-01T17:06:50.613Z,14.39
2023-10-01T17:09:49.430Z,16.22
2023-10-01T17:12:24.646Z,16.37
2023-10-01T17:14:54.413Z,15.76
2023-10-01T17:17:28.602Z,15.27
2023-10-01T17:20:16.238Z,14.94
2023-10-01T17:22:47.983Z,14.69
2023-10-01T17:25:17.877Z,14.51
2023-10-01T17:27:45.942Z,14.36
2023-10-01T17:30:19.540Z,14.22
2023-10-01T17:33:02.316Z,14.08
2023-10-01T17:35:30.614Z,14.39
2023-10-01T17:38:10.848Z,16.00
2023-10-01T17:40:48.352Z,17.53
2023-10-01T17:43:28.653Z,18.16
2023-10-01T17:46:04.764Z,17.35
2023-10-01T17:48:37.078Z,16.52
2023-10-01T17:51:06.316Z,15.96
2023-10-01T17:53:38.024Z,15.56
2023-10-01T17:56:22.333Z,15.23
2023-10-01T17:58:58.927Z,14.93
2023-10-01T18:01:27.638Z,14.67
2023-10-01T18:04:00.552Z,14.47
2023-10-01T18:06:32.149Z,14.67
2023-10-01T18:09:01.555Z,16.24
2023-10-01T18:11:30.443Z,17.67
2023-10-01T18:14:03.532Z,18.29
2023-10-01T18:16:31.925Z,17.53
2023-10-01T18:19:08.491Z,16.72
2023-10-01T18:21:40.935Z,16.10
2023-10-01T18:24:09.665Z,15.64
2023-10-01T18:26:39.156Z,15.26
2023-10-01T18:29:16.172Z,14.95
2023-10-01T18:31:50.036Z,14.67
2023-10-01T18:34:24.162Z,14.42
2023-10-01T18:36:56.550Z,14.20
2023-10-01T18:39:27.630Z,14.02
2023-10-01T18:41:58.606Z,14.40
2023-10-01T18:44:28.121Z,16.32
2023-10-01T18:46:57.581Z,17.71
2023-10-01T18:49:28.086Z,18.27
2023-10-01T18:51:56.483Z,17.51
2023-10-01T18:54:27.101Z,16.65
2023-10-01T18:57:01.222Z,16.05
2023-10-01T18:59:30.178Z,15.58
2023-10-01T19:02:01.149Z,15.19
2023-10-01T19:04:32.713Z,14.86
2023-10-01T19:07:02.341Z,14.59
2023-10-01T19:09:36.220Z,14.73
2023-10-01T19:12:04.683Z,16.29
2023-10-01T19:14:35.848Z,17.61
2023-10-01T19:17:04.299Z,18.23
2023-10-01T19:19:36.224Z,17.52
2023-10-01T19:22:12.259Z,16.66
2023-10-01T19:24:40.957Z,16.02
2023-10-01T19:27:15.761Z,15.53
2023-10-01T19:29:43.834Z,15.13
2023-10-01T19:32:14.465Z,14.80
2023-10-01T19:34:45.118Z,14.88
2023-10-01T19:37:15.651Z,16.36
2023-10-01T19:39:47.085Z,17.70
2023-10-01T19:42:18.440Z,18.59
2023-10-01T19:44:47.268Z,18.51
2023-10-01T19:47:17.110Z,17.50
2023-10-01T19:49:49.338Z,16.64
2023-10-01T19:52:27.553Z,15.99
2023-10-01T19:55:02.057Z,15.48
2023-10-01T19:57:41.591Z,15.09
2023-10-01T20:00:20.103Z,14.75
2023-10-01T20:02:48.336Z,14.45
2023-10-01T20:05:16.566Z,14.59
2023-10-01T20:07:48.156Z,16.08
2023-10-01T20:10:19.562Z,17.46
2023-10-01T20:12:51.019Z,18.08
2023-10-01T20:15:25.121Z,17.34
2023-10-01T20:18:20.457Z,16.36
2023-10-01T20:20:51.159Z,15.54
2023-10-01T20:23:21.621Z,15.04
2023-10-01T20:25:58.046Z,14.68
2023-10-01T20:28:29.259Z,14.82
2023-10-01T20:30:59.066Z,16.29
2023-10-01T20:33:30.918Z,17.65
2023-10-01T20:35:59.888Z,18.23
2023-10-01T20:38:30.226Z,17.46
2023-10-01T20:41:25.936Z,16.57
2023-10-01T20:43:58.210Z,15.81
2023-10-01T20:46:26.436Z,15.33
2023-10-01T20:49:00.897Z,14.95
2023-10-01T20:51:30.588Z,15.06
2023-10-01T20:54:04.924Z,16.56
2023-10-01T20:56:36.978Z,17.95
2023-10-01T20:59:15.696Z,18.63
2023-10-01T21:02:01.188Z,18.02
2023-10-01T21:04:34.289Z,17.01
2023-10-01T21:07:16.372Z,16.29
2023-10-01T21:09:48.959Z,15.72
2023-10-01T21:12:21.491Z,15.32
2023-10-01T21:15:08.801Z,14.95
2023-10-01T21:17:37.424Z,15.14
2023-10-01T21:20:12.097Z,16.73
2023-10-01T21:22:47.397Z,18.01
2023-10-01T21:25:27.750Z,18.46
2023-10-01T21:28:13.135Z,17.55
2023-10-01T21:30:46.410Z,16.54
2023-10-01T21:33:18.655Z,15.84
2023-10-01T21:35:47.306Z,15.31
2023-10-01T21:38:26.062Z,14.92
2023-10-01T21:40:55.191Z,15.02
2023-10-01T21:43:26.606Z,16.46
2023-10-01T21:46:01.887Z,17.71
2023-10-01T21:48:31.153Z,18.24
2023-10-01T21:51:03.608Z,17.46
2023-10-01T21:53:35.661Z,16.59
2023-10-01T21:56:12.128Z,15.93
2023-10-01T21:58:56.613Z,15.43
2023-10-01T22:01:46.004Z,15.01
2023-10-01T22:04:25.847Z,15.18
2023-10-01T22:06:56.740Z,16.85
2023-10-01T22:09:27.545Z,18.09
2023-10-01T22:11:58.021Z,18.45
2023-10-01T22:14:29.997Z,17.54
2023-10-01T22:16:58.092Z,16.59
2023-10-01T22:19:28.185Z,15.90
2023-10-01T22:21:59.216Z,15.39
2023-10-01T22:24:36.900Z,14.97
2023-10-01T22:27:14.064Z,15.06
2023-10-01T22:29:48.978Z,16.57
2023-10-01T22:32:18.646Z,17.82
2023-10-01T22:34:58.683Z,18.24
2023-10-01T22:37:30.754Z,17.36
2023-10-01T22:39:59.574Z,16.42
2023-10-01T22:42:35.235Z,15.74
2023-10-01T22:45:28.275Z,15.23
2023-10-01T22:48:02.431Z,15.34
2023-10-01T22:50:32.255Z,16.84
2023-10-01T22:53:03.076Z,18.04
2023-10-01T22:55:31.138Z,18.50
2023-10-01T22:58:03.510Z,17.67
2023-10-01T23:00:33.252Z,16.76
2023-10-01T23:03:03.002Z,16.12
2023-10-01T23:05:44.707Z,15.62
2023-10-01T23:08:13.446Z,15.21
2023-10-01T23:10:42.333Z,15.24
2023-10-01T23:13:12.843Z,16.64
2023-10-01T23:15:52.172Z,18.02
2023-10-01T23:18:25.790Z,18.57
2023-10-01T23:21:00.113Z,17.69
2023-10-01T23:23:34.628Z,16.72
2023-10-01T23:26:05.859Z,15.99
2023-10-01T23:28:38.043Z,15.46
2023-10-01T23:31:13.233Z,15.47
2023-10-01T23:33:46.821Z,16.94
2023-10-01T23:36:19.371Z,18.19
2023-10-01T23:38:57.126Z,18.65
2023-10-01T23:41:49.484Z,17.73
2023-10-01T23:44:25.501Z,16.62
2023-10-01T23:46:57.195Z,15.87
2023-10-01T23:49:30.129Z,15.30
2023-10-01T23:52:06.128Z,15.28
2023-10-01T23:54:39.176Z,16.82
2023-10-01T23:57:14.351Z,18.09
2023-10-01T23:59:50.089Z,18.50
